JRR738 CYYT-LPPD
Flight info
| Callsign | JRR738 |
|---|---|
| Flight time | 3h 4m |
| Altitude | 41000 |
| Route | NICSO DCT 48N050W DCT 44N040W DCT LUKAL DCT 40N030W DCT MIPRU |
| Aircraft | B738/M-SDGIRWY/S |
Departure
| Time | 2026-05-05 16:13 |
|---|---|
| Airport | St. John's International Airport (CYYT) |
Arrival
| Time | 2026-05-05 19:18 |
|---|---|
| Airport | João Paulo II Airport (LPPD) |
| Time | Latitude | Longitude | Altitude | Speed | Heading |
|---|---|---|---|---|---|
| 2026-05-05 15:40 | 47.61772 | -52.75117 | 467 ft | 0 kts | 187° |
| 2026-05-05 16:03 | 47.61785 | -52.75114 | 466 ft | 2 kts | 186° |
| 2026-05-05 16:03 | 47.61800 | -52.75111 | 466 ft | 2 kts | 186° |
| 2026-05-05 16:03 | 47.61809 | -52.75110 | 466 ft | 1 kts | 187° |
| 2026-05-05 16:03 | 47.61824 | -52.75111 | 465 ft | 2 kts | 153° |
| 2026-05-05 16:04 | 47.61836 | -52.75125 | 466 ft | 2 kts | 125° |
| 2026-05-05 16:04 | 47.61842 | -52.75145 | 466 ft | 2 kts | 95° |
| 2026-05-05 16:04 | 47.61840 | -52.75167 | 467 ft | 2 kts | 66° |
| 2026-05-05 16:04 | 47.61836 | -52.75177 | 467 ft | 1 kts | 48° |
| 2026-05-05 16:05 | 47.61833 | -52.75182 | 468 ft | 0 kts | 52° |
| 2026-05-05 16:07 | 47.61834 | -52.75181 | 467 ft | 1 kts | 52° |
| 2026-05-05 16:07 | 47.61857 | -52.75137 | 465 ft | 8 kts | 52° |
| 2026-05-05 16:07 | 47.61909 | -52.75037 | 461 ft | 15 kts | 52° |
| 2026-05-05 16:07 | 47.61986 | -52.74896 | 454 ft | 20 kts | 48° |
| 2026-05-05 16:08 | 47.61997 | -52.74755 | 450 ft | 15 kts | 140° |
| 2026-05-05 16:08 | 47.61916 | -52.74656 | 448 ft | 15 kts | 140° |
| 2026-05-05 16:08 | 47.61834 | -52.74551 | 445 ft | 16 kts | 137° |
| 2026-05-05 16:08 | 47.61748 | -52.74436 | 441 ft | 16 kts | 140° |
| 2026-05-05 16:09 | 47.61661 | -52.74325 | 439 ft | 16 kts | 139° |
| 2026-05-05 16:09 | 47.61587 | -52.74250 | 439 ft | 8 kts | 189° |
| 2026-05-05 16:09 | 47.61550 | -52.74301 | 441 ft | 5 kts | 228° |
| 2026-05-05 16:09 | 47.61533 | -52.74330 | 442 ft | 2 kts | 229° |
| 2026-05-05 16:10 | 47.61472 | -52.74343 | 443 ft | 14 kts | 139° |
| 2026-05-05 16:10 | 47.61427 | -52.74182 | 439 ft | 19 kts | 112° |
| 2026-05-05 16:10 | 47.61360 | -52.73990 | 433 ft | 21 kts | 136° |
| 2026-05-05 16:10 | 47.61267 | -52.73900 | 432 ft | 13 kts | 119° |
| 2026-05-05 16:11 | 47.61221 | -52.73763 | 429 ft | 16 kts | 117° |
| 2026-05-05 16:11 | 47.61171 | -52.73376 | 422 ft | 10 kts | 337° |
| 2026-05-05 16:12 | 47.61185 | -52.73389 | 422 ft | 0 kts | 322° |
| 2026-05-05 16:12 | 47.61222 | -52.73437 | 422 ft | 19 kts | 317° |
| 2026-05-05 16:13 | 47.63266 | -52.75696 | 1981 ft | 154 kts | 311° |
| 2026-05-05 16:13 | 47.63993 | -52.76649 | 2878 ft | 133 kts | 289° |
| 2026-05-05 16:13 | 47.63967 | -52.77940 | 3326 ft | 139 kts | 238° |
| 2026-05-05 16:14 | 47.62707 | -52.80406 | 4345 ft | 166 kts | 259° |
| 2026-05-05 16:14 | 47.62342 | -52.84109 | 5455 ft | 197 kts | 258° |
| 2026-05-05 16:15 | 47.60322 | -52.87218 | 6598 ft | 251 kts | 205° |
| 2026-05-05 16:15 | 47.56611 | -52.86713 | 8226 ft | 289 kts | 172° |
| 2026-05-05 16:16 | 47.53479 | -52.82735 | 9943 ft | 326 kts | 115° |
| 2026-05-05 16:16 | 47.53186 | -52.75903 | 11263 ft | 352 kts | 84° |
| 2026-05-05 16:17 | 47.53447 | -52.68375 | 12536 ft | 383 kts | 89° |
| 2026-05-05 16:17 | 47.53373 | -52.64411 | 13407 ft | 390 kts | 92° |
| 2026-05-05 16:18 | 47.53005 | -52.56356 | 15295 ft | 400 kts | 94° |
| 2026-05-05 16:18 | 47.52779 | -52.52222 | 16238 ft | 404 kts | 94° |
| 2026-05-05 16:18 | 47.52326 | -52.43922 | 18029 ft | 415 kts | 94° |
| 2026-05-05 16:19 | 47.52101 | -52.39682 | 18945 ft | 418 kts | 94° |
| 2026-05-05 16:19 | 47.51875 | -52.35379 | 19715 ft | 422 kts | 93° |
| 2026-05-05 16:19 | 47.51423 | -52.26669 | 21174 ft | 432 kts | 94° |
| 2026-05-05 16:20 | 47.50954 | -52.17743 | 22261 ft | 442 kts | 94° |
| 2026-05-05 16:20 | 47.50471 | -52.08665 | 23581 ft | 442 kts | 94° |
| 2026-05-05 16:21 | 47.50530 | -51.99479 | 24290 ft | 454 kts | 80° |
| 2026-05-05 16:22 | 47.53261 | -51.86158 | 26155 ft | 459 kts | 65° |
| 2026-05-05 16:22 | 47.55664 | -51.77357 | 27385 ft | 466 kts | 64° |
| 2026-05-05 16:23 | 47.58109 | -51.68402 | 28543 ft | 473 kts | 65° |
| 2026-05-05 16:23 | 47.59322 | -51.63859 | 29030 ft | 479 kts | 65° |
| 2026-05-05 16:23 | 47.61743 | -51.54610 | 30113 ft | 486 kts | 66° |
| 2026-05-05 16:24 | 47.62961 | -51.49893 | 30601 ft | 490 kts | 66° |
| 2026-05-05 16:24 | 47.64179 | -51.45143 | 30947 ft | 495 kts | 66° |
| 2026-05-05 16:24 | 47.66587 | -51.35680 | 31882 ft | 491 kts | 66° |
| 2026-05-05 16:25 | 47.67801 | -51.30889 | 32225 ft | 493 kts | 68° |
| 2026-05-05 16:25 | 47.70207 | -51.21364 | 32901 ft | 497 kts | 68° |
| 2026-05-05 16:25 | 47.71416 | -51.16565 | 33296 ft | 497 kts | 68° |
| 2026-05-05 16:26 | 47.73827 | -51.06965 | 34143 ft | 497 kts | 68° |
| 2026-05-05 16:26 | 47.76214 | -50.97425 | 35030 ft | 495 kts | 69° |
| 2026-05-05 16:27 | 47.77401 | -50.92663 | 35473 ft | 494 kts | 69° |
| 2026-05-05 16:27 | 47.78591 | -50.87879 | 35892 ft | 493 kts | 69° |
| 2026-05-05 16:27 | 47.79777 | -50.83102 | 36262 ft | 493 kts | 69° |
| 2026-05-05 16:27 | 47.80962 | -50.78320 | 36622 ft | 493 kts | 69° |
| 2026-05-05 16:28 | 47.82139 | -50.73562 | 36959 ft | 494 kts | 69° |
| 2026-05-05 16:28 | 47.83328 | -50.68748 | 37309 ft | 494 kts | 70° |
| 2026-05-05 16:28 | 47.84506 | -50.63960 | 37625 ft | 494 kts | 70° |
| 2026-05-05 16:28 | 47.85678 | -50.59188 | 37931 ft | 495 kts | 70° |
| 2026-05-05 16:29 | 47.86844 | -50.54426 | 38254 ft | 496 kts | 70° |
| 2026-05-05 16:29 | 47.88036 | -50.49554 | 38615 ft | 496 kts | 70° |
| 2026-05-05 16:29 | 47.89194 | -50.44810 | 38937 ft | 495 kts | 70° |
| 2026-05-05 16:29 | 47.90368 | -50.39991 | 39284 ft | 495 kts | 70° |
| 2026-05-05 16:30 | 47.91531 | -50.35208 | 39608 ft | 494 kts | 70° |
| 2026-05-05 16:30 | 47.92706 | -50.30363 | 39952 ft | 492 kts | 71° |
| 2026-05-05 16:30 | 47.93850 | -50.25638 | 40260 ft | 492 kts | 71° |
| 2026-05-05 16:30 | 47.95015 | -50.20819 | 40495 ft | 492 kts | 71° |
| 2026-05-05 16:31 | 47.96164 | -50.16051 | 40756 ft | 492 kts | 70° |
| 2026-05-05 16:31 | 47.97290 | -50.11263 | 40949 ft | 492 kts | 73° |
| 2026-05-05 16:31 | 47.98422 | -50.01221 | 40991 ft | 494 kts | 94° |
| 2026-05-05 16:32 | 47.97988 | -49.96182 | 40991 ft | 489 kts | 106° |
| 2026-05-05 16:32 | 47.96988 | -49.91349 | 40985 ft | 486 kts | 114° |
| 2026-05-05 16:32 | 47.94127 | -49.82294 | 40987 ft | 483 kts | 120° |
| 2026-05-05 16:33 | 47.91138 | -49.73368 | 40992 ft | 484 kts | 120° |
| 2026-05-05 16:33 | 47.88146 | -49.64413 | 41017 ft | 487 kts | 120° |
| 2026-05-05 16:34 | 47.85141 | -49.55437 | 41016 ft | 486 kts | 120° |
| 2026-05-05 16:34 | 47.82116 | -49.46426 | 41023 ft | 485 kts | 120° |
| 2026-05-05 16:35 | 47.79104 | -49.37501 | 41024 ft | 486 kts | 120° |
| 2026-05-05 16:35 | 47.76056 | -49.28503 | 41047 ft | 486 kts | 121° |
| 2026-05-05 16:36 | 47.73035 | -49.19612 | 41049 ft | 484 kts | 121° |
| 2026-05-05 16:36 | 47.70009 | -49.10742 | 41051 ft | 486 kts | 121° |
| 2026-05-05 16:37 | 47.66952 | -49.01812 | 41053 ft | 486 kts | 121° |
| 2026-05-05 16:37 | 47.63896 | -48.92913 | 41053 ft | 486 kts | 121° |
| 2026-05-05 16:38 | 47.60811 | -48.83960 | 41066 ft | 488 kts | 121° |
| 2026-05-05 16:38 | 47.57726 | -48.75040 | 41059 ft | 486 kts | 121° |
| 2026-05-05 16:39 | 47.54648 | -48.66167 | 41072 ft | 487 kts | 121° |
| 2026-05-05 16:39 | 47.51550 | -48.57269 | 41078 ft | 488 kts | 121° |
| 2026-05-05 16:40 | 47.48450 | -48.48402 | 41080 ft | 488 kts | 121° |
| 2026-05-05 16:40 | 47.45335 | -48.39511 | 41080 ft | 488 kts | 121° |
| 2026-05-05 16:41 | 47.42215 | -48.30640 | 41079 ft | 487 kts | 122° |
| 2026-05-05 16:41 | 47.39088 | -48.21780 | 41090 ft | 488 kts | 122° |
| 2026-05-05 16:42 | 47.35943 | -48.12899 | 41091 ft | 489 kts | 122° |
| 2026-05-05 16:42 | 47.32808 | -48.04076 | 41088 ft | 489 kts | 122° |
| 2026-05-05 16:43 | 47.29659 | -47.95242 | 41092 ft | 489 kts | 122° |
| 2026-05-05 16:43 | 47.26484 | -47.86365 | 41105 ft | 488 kts | 122° |
| 2026-05-05 16:44 | 47.23339 | -47.77597 | 41109 ft | 487 kts | 122° |
| 2026-05-05 16:44 | 47.20168 | -47.68793 | 41105 ft | 489 kts | 122° |
| 2026-05-05 16:45 | 47.16990 | -47.60002 | 41127 ft | 488 kts | 122° |
| 2026-05-05 16:45 | 47.13784 | -47.51157 | 41124 ft | 488 kts | 122° |
| 2026-05-05 16:46 | 47.10604 | -47.42414 | 41127 ft | 489 kts | 122° |
| 2026-05-05 16:46 | 47.07396 | -47.33623 | 41127 ft | 489 kts | 123° |
| 2026-05-05 16:47 | 47.04203 | -47.24900 | 41142 ft | 488 kts | 123° |
| 2026-05-05 16:47 | 47.00982 | -47.16130 | 41149 ft | 488 kts | 123° |
| 2026-05-05 16:48 | 46.97768 | -47.07408 | 41153 ft | 487 kts | 123° |
| 2026-05-05 16:48 | 46.94552 | -46.98710 | 41159 ft | 489 kts | 123° |
| 2026-05-05 16:49 | 46.91312 | -46.89977 | 41155 ft | 489 kts | 123° |
| 2026-05-05 16:49 | 46.88060 | -46.81239 | 41154 ft | 488 kts | 124° |
| 2026-05-05 16:50 | 46.84812 | -46.72539 | 41159 ft | 488 kts | 124° |
| 2026-05-05 16:50 | 46.81581 | -46.63913 | 41173 ft | 487 kts | 124° |
| 2026-05-05 16:51 | 46.78305 | -46.55197 | 41165 ft | 488 kts | 124° |
| 2026-05-05 16:51 | 46.75030 | -46.46533 | 41175 ft | 489 kts | 124° |
| 2026-05-05 16:52 | 46.71740 | -46.37929 | 41167 ft | 488 kts | 124° |
| 2026-05-05 16:52 | 46.68424 | -46.29272 | 41177 ft | 487 kts | 125° |
| 2026-05-05 16:53 | 46.65142 | -46.20697 | 41188 ft | 489 kts | 125° |
| 2026-05-05 16:53 | 46.61861 | -46.12118 | 41175 ft | 488 kts | 125° |
| 2026-05-05 16:54 | 46.58553 | -46.03483 | 41180 ft | 489 kts | 125° |
| 2026-05-05 16:54 | 46.55249 | -45.94883 | 41183 ft | 489 kts | 125° |
| 2026-05-05 16:55 | 46.51936 | -45.86278 | 41202 ft | 489 kts | 125° |
| 2026-05-05 16:55 | 46.48596 | -45.77637 | 41203 ft | 490 kts | 125° |
| 2026-05-05 16:56 | 46.45277 | -45.69079 | 41206 ft | 489 kts | 125° |
| 2026-05-05 16:56 | 46.41935 | -45.60486 | 41216 ft | 491 kts | 125° |
| 2026-05-05 16:57 | 46.38582 | -45.51893 | 41209 ft | 489 kts | 125° |
| 2026-05-05 16:57 | 46.35252 | -45.43384 | 41218 ft | 490 kts | 126° |
| 2026-05-05 16:58 | 46.31897 | -45.34842 | 41236 ft | 489 kts | 126° |
| 2026-05-05 16:58 | 46.28532 | -45.26303 | 41233 ft | 490 kts | 126° |
| 2026-05-05 16:59 | 46.25154 | -45.17752 | 41243 ft | 488 kts | 126° |
| 2026-05-05 16:59 | 46.21791 | -45.09263 | 41238 ft | 489 kts | 126° |
| 2026-05-05 17:00 | 46.18407 | -45.00755 | 41242 ft | 490 kts | 126° |
| 2026-05-05 17:00 | 46.15023 | -44.92276 | 41249 ft | 490 kts | 126° |
| 2026-05-05 17:01 | 46.11637 | -44.83810 | 41254 ft | 491 kts | 127° |
| 2026-05-05 17:01 | 46.08211 | -44.75271 | 41255 ft | 492 kts | 127° |
| 2026-05-05 17:02 | 46.04796 | -44.66789 | 41256 ft | 493 kts | 127° |
| 2026-05-05 17:02 | 46.01372 | -44.58312 | 41251 ft | 493 kts | 127° |
| 2026-05-05 17:03 | 45.97900 | -44.49740 | 41261 ft | 494 kts | 127° |
| 2026-05-05 17:03 | 45.94443 | -44.41227 | 41268 ft | 494 kts | 127° |
| 2026-05-05 17:04 | 45.90987 | -44.32747 | 41265 ft | 494 kts | 127° |
| 2026-05-05 17:04 | 45.87515 | -44.24253 | 41275 ft | 495 kts | 127° |
| 2026-05-05 17:05 | 45.84014 | -44.15720 | 41284 ft | 494 kts | 127° |
| 2026-05-05 17:05 | 45.80555 | -44.07301 | 41273 ft | 493 kts | 128° |
| 2026-05-05 17:06 | 45.77045 | -43.98794 | 41282 ft | 493 kts | 127° |
| 2026-05-05 17:06 | 45.73576 | -43.90406 | 41290 ft | 492 kts | 128° |
| 2026-05-05 17:07 | 45.70082 | -43.82000 | 41288 ft | 493 kts | 127° |
| 2026-05-05 17:07 | 45.66566 | -43.73558 | 41299 ft | 494 kts | 128° |
| 2026-05-05 17:08 | 45.63035 | -43.65111 | 41291 ft | 498 kts | 127° |
| 2026-05-05 17:08 | 45.59491 | -43.56646 | 41296 ft | 498 kts | 128° |
| 2026-05-05 17:09 | 45.55931 | -43.48170 | 41291 ft | 502 kts | 128° |
| 2026-05-05 17:09 | 45.52360 | -43.39691 | 41292 ft | 499 kts | 127° |
| 2026-05-05 17:10 | 45.48795 | -43.31247 | 41292 ft | 499 kts | 128° |
| 2026-05-05 17:10 | 45.45218 | -43.22805 | 41289 ft | 498 kts | 129° |
| 2026-05-05 17:11 | 45.41629 | -43.14367 | 41300 ft | 502 kts | 128° |
| 2026-05-05 17:11 | 45.38009 | -43.05896 | 41302 ft | 502 kts | 128° |
| 2026-05-05 17:12 | 45.34396 | -42.97452 | 41309 ft | 501 kts | 128° |
| 2026-05-05 17:12 | 45.30769 | -42.89008 | 41313 ft | 504 kts | 129° |
| 2026-05-05 17:13 | 45.27157 | -42.80617 | 41308 ft | 501 kts | 129° |
| 2026-05-05 17:13 | 45.23497 | -42.72142 | 41311 ft | 503 kts | 129° |
| 2026-05-05 17:14 | 45.19866 | -42.63759 | 41309 ft | 502 kts | 129° |
| 2026-05-05 17:14 | 45.16209 | -42.55341 | 41312 ft | 502 kts | 129° |
| 2026-05-05 17:15 | 45.12554 | -42.46953 | 41314 ft | 502 kts | 128° |
| 2026-05-05 17:15 | 45.08865 | -42.38522 | 41307 ft | 506 kts | 129° |
| 2026-05-05 17:16 | 45.05186 | -42.30116 | 41319 ft | 501 kts | 129° |
| 2026-05-05 17:16 | 45.01494 | -42.21720 | 41310 ft | 504 kts | 130° |
| 2026-05-05 17:17 | 44.97800 | -42.13336 | 41324 ft | 505 kts | 130° |
| 2026-05-05 17:17 | 44.94083 | -42.04940 | 41320 ft | 507 kts | 130° |
| 2026-05-05 17:18 | 44.90369 | -41.96573 | 41310 ft | 507 kts | 129° |
| 2026-05-05 17:18 | 44.86633 | -41.88170 | 41313 ft | 505 kts | 129° |
| 2026-05-05 17:19 | 44.82935 | -41.79881 | 41307 ft | 505 kts | 130° |
| 2026-05-05 17:19 | 44.79183 | -41.71494 | 41311 ft | 504 kts | 130° |
| 2026-05-05 17:20 | 44.75457 | -41.63198 | 41311 ft | 503 kts | 130° |
| 2026-05-05 17:20 | 44.71699 | -41.54852 | 41304 ft | 510 kts | 129° |
| 2026-05-05 17:21 | 44.67879 | -41.46405 | 41303 ft | 511 kts | 130° |
| 2026-05-05 17:22 | 44.62190 | -41.33839 | 41303 ft | 510 kts | 131° |
| 2026-05-05 17:22 | 44.58390 | -41.25478 | 41305 ft | 511 kts | 130° |
| 2026-05-05 17:23 | 44.54588 | -41.17146 | 41301 ft | 513 kts | 129° |
| 2026-05-05 17:23 | 44.50773 | -41.08797 | 41297 ft | 508 kts | 129° |
| 2026-05-05 17:24 | 44.46943 | -41.00441 | 41297 ft | 511 kts | 129° |
| 2026-05-05 17:24 | 44.43127 | -40.92152 | 41295 ft | 508 kts | 130° |
| 2026-05-05 17:25 | 44.39295 | -40.83859 | 41296 ft | 512 kts | 129° |
| 2026-05-05 17:25 | 44.35453 | -40.75554 | 41296 ft | 509 kts | 129° |
| 2026-05-05 17:26 | 44.31583 | -40.67214 | 41295 ft | 510 kts | 129° |
| 2026-05-05 17:26 | 44.27723 | -40.58910 | 41298 ft | 507 kts | 129° |
| 2026-05-05 17:27 | 44.23922 | -40.50758 | 41295 ft | 502 kts | 129° |
| 2026-05-05 17:27 | 44.20143 | -40.42670 | 41298 ft | 495 kts | 130° |
| 2026-05-05 17:28 | 44.16384 | -40.34666 | 41299 ft | 497 kts | 130° |
| 2026-05-05 17:28 | 44.12590 | -40.26629 | 41296 ft | 498 kts | 129° |
| 2026-05-05 17:29 | 44.08794 | -40.18592 | 41298 ft | 498 kts | 130° |
| 2026-05-05 17:29 | 44.04988 | -40.10554 | 41298 ft | 500 kts | 130° |
| 2026-05-05 17:30 | 44.01207 | -40.02406 | 41301 ft | 510 kts | 126° |
| 2026-05-05 17:30 | 43.97923 | -39.93595 | 41300 ft | 514 kts | 121° |
| 2026-05-05 17:31 | 43.94947 | -39.84548 | 41302 ft | 517 kts | 118° |
| 2026-05-05 17:31 | 43.92130 | -39.75378 | 41300 ft | 517 kts | 117° |
| 2026-05-05 17:32 | 43.89318 | -39.66176 | 41296 ft | 515 kts | 117° |
| 2026-05-05 17:32 | 43.86502 | -39.57106 | 41277 ft | 512 kts | 117° |
| 2026-05-05 17:33 | 43.83667 | -39.48108 | 41318 ft | 514 kts | 117° |
| 2026-05-05 17:33 | 43.80780 | -39.39030 | 41297 ft | 516 kts | 117° |
| 2026-05-05 17:34 | 43.77874 | -39.29923 | 41283 ft | 514 kts | 118° |
| 2026-05-05 17:34 | 43.75010 | -39.20972 | 41281 ft | 513 kts | 118° |
| 2026-05-05 17:35 | 43.72115 | -39.11963 | 41308 ft | 512 kts | 119° |
| 2026-05-05 17:35 | 43.69244 | -39.03060 | 41260 ft | 512 kts | 118° |
| 2026-05-05 17:36 | 43.66343 | -38.94100 | 41282 ft | 511 kts | 118° |
| 2026-05-05 17:36 | 43.63451 | -38.85191 | 41282 ft | 511 kts | 118° |
| 2026-05-05 17:37 | 43.60557 | -38.76300 | 41281 ft | 512 kts | 118° |
| 2026-05-05 17:37 | 43.57639 | -38.67367 | 41267 ft | 509 kts | 118° |
| 2026-05-05 17:38 | 43.54749 | -38.58542 | 41268 ft | 509 kts | 118° |
| 2026-05-05 17:38 | 43.51810 | -38.49623 | 41275 ft | 511 kts | 118° |
| 2026-05-05 17:39 | 43.48886 | -38.40766 | 41271 ft | 507 kts | 118° |
| 2026-05-05 17:39 | 43.45950 | -38.31902 | 41274 ft | 510 kts | 118° |
| 2026-05-05 17:40 | 43.43013 | -38.23071 | 41270 ft | 509 kts | 118° |
| 2026-05-05 17:40 | 43.40074 | -38.14249 | 41280 ft | 508 kts | 118° |
| 2026-05-05 17:41 | 43.37111 | -38.05389 | 41277 ft | 508 kts | 119° |
| 2026-05-05 17:41 | 43.34181 | -37.96661 | 41279 ft | 507 kts | 118° |
| 2026-05-05 17:42 | 43.31206 | -37.87831 | 41279 ft | 510 kts | 118° |
| 2026-05-05 17:42 | 43.28235 | -37.79031 | 41278 ft | 508 kts | 119° |
| 2026-05-05 17:43 | 43.25244 | -37.70199 | 41278 ft | 510 kts | 119° |
| 2026-05-05 17:43 | 43.22284 | -37.61483 | 41282 ft | 507 kts | 118° |
| 2026-05-05 17:44 | 43.19292 | -37.52710 | 41279 ft | 510 kts | 119° |
| 2026-05-05 17:44 | 43.16304 | -37.43984 | 41286 ft | 509 kts | 118° |
| 2026-05-05 17:45 | 43.13313 | -37.35268 | 41284 ft | 507 kts | 118° |
| 2026-05-05 17:45 | 43.10303 | -37.26533 | 41286 ft | 509 kts | 118° |
| 2026-05-05 17:46 | 43.07300 | -37.17851 | 41292 ft | 508 kts | 118° |
| 2026-05-05 17:46 | 43.04276 | -37.09126 | 41293 ft | 509 kts | 119° |
| 2026-05-05 17:47 | 43.01245 | -37.00406 | 41302 ft | 509 kts | 119° |
| 2026-05-05 17:47 | 42.98203 | -36.91684 | 41304 ft | 510 kts | 118° |
| 2026-05-05 17:48 | 42.95158 | -36.82982 | 41309 ft | 510 kts | 118° |
| 2026-05-05 17:48 | 42.92125 | -36.74336 | 41305 ft | 509 kts | 118° |
| 2026-05-05 17:49 | 42.89050 | -36.65604 | 41309 ft | 512 kts | 118° |
| 2026-05-05 17:49 | 42.85968 | -36.56888 | 41312 ft | 517 kts | 118° |
| 2026-05-05 17:50 | 42.82848 | -36.48083 | 41319 ft | 517 kts | 118° |
| 2026-05-05 17:50 | 42.79726 | -36.39292 | 41324 ft | 518 kts | 118° |
| 2026-05-05 17:51 | 42.76586 | -36.30484 | 41325 ft | 518 kts | 118° |
| 2026-05-05 17:51 | 42.73445 | -36.21699 | 41325 ft | 515 kts | 118° |
| 2026-05-05 17:52 | 42.70348 | -36.13060 | 41335 ft | 510 kts | 119° |
| 2026-05-05 17:52 | 42.67241 | -36.04433 | 41347 ft | 514 kts | 118° |
| 2026-05-05 17:53 | 42.64092 | -35.95714 | 41344 ft | 514 kts | 118° |
| 2026-05-05 17:53 | 42.60928 | -35.86972 | 41347 ft | 516 kts | 118° |
| 2026-05-05 17:54 | 42.57795 | -35.78341 | 41349 ft | 515 kts | 118° |
| 2026-05-05 17:54 | 42.54626 | -35.69651 | 41352 ft | 514 kts | 118° |
| 2026-05-05 17:55 | 42.51465 | -35.61008 | 41350 ft | 513 kts | 118° |
| 2026-05-05 17:55 | 42.48319 | -35.52433 | 41352 ft | 510 kts | 117° |
| 2026-05-05 17:56 | 42.45135 | -35.43785 | 41347 ft | 514 kts | 117° |
| 2026-05-05 17:56 | 42.41955 | -35.35162 | 41352 ft | 509 kts | 118° |
| 2026-05-05 17:57 | 42.38782 | -35.26587 | 41348 ft | 511 kts | 118° |
| 2026-05-05 17:57 | 42.35591 | -35.17986 | 41345 ft | 513 kts | 118° |
| 2026-05-05 17:58 | 42.32398 | -35.09410 | 41350 ft | 514 kts | 118° |
| 2026-05-05 17:58 | 42.29182 | -35.00798 | 41350 ft | 516 kts | 117° |
| 2026-05-05 17:59 | 42.25938 | -34.92136 | 41350 ft | 510 kts | 118° |
| 2026-05-05 17:59 | 42.22755 | -34.83667 | 41359 ft | 509 kts | 118° |
| 2026-05-05 18:00 | 42.19538 | -34.75136 | 41361 ft | 516 kts | 118° |
| 2026-05-05 18:00 | 42.16269 | -34.66493 | 41361 ft | 520 kts | 117° |
| 2026-05-05 18:01 | 42.13023 | -34.57927 | 41363 ft | 506 kts | 117° |
| 2026-05-05 18:01 | 42.09839 | -34.49549 | 41365 ft | 507 kts | 117° |
| 2026-05-05 18:02 | 42.06608 | -34.41074 | 41364 ft | 506 kts | 117° |
| 2026-05-05 18:02 | 42.03422 | -34.32745 | 41369 ft | 503 kts | 118° |
| 2026-05-05 18:03 | 42.00207 | -34.24363 | 41385 ft | 505 kts | 118° |
| 2026-05-05 18:03 | 41.96989 | -34.15995 | 41396 ft | 505 kts | 118° |
| 2026-05-05 18:04 | 41.93742 | -34.07582 | 41400 ft | 508 kts | 118° |
| 2026-05-05 18:04 | 41.90510 | -33.99232 | 41398 ft | 504 kts | 117° |
| 2026-05-05 18:05 | 41.87287 | -33.90922 | 41403 ft | 502 kts | 117° |
| 2026-05-05 18:05 | 41.84055 | -33.82619 | 41411 ft | 502 kts | 117° |
| 2026-05-05 18:06 | 41.80837 | -33.74371 | 41414 ft | 502 kts | 117° |
| 2026-05-05 18:06 | 41.77620 | -33.66151 | 41412 ft | 502 kts | 117° |
| 2026-05-05 18:07 | 41.74378 | -33.57893 | 41407 ft | 503 kts | 117° |
| 2026-05-05 18:07 | 41.71127 | -33.49630 | 41396 ft | 505 kts | 117° |
| 2026-05-05 18:08 | 41.67840 | -33.41304 | 41402 ft | 504 kts | 117° |
| 2026-05-05 18:08 | 41.64598 | -33.33114 | 41394 ft | 502 kts | 117° |
| 2026-05-05 18:09 | 41.61326 | -33.24873 | 41404 ft | 505 kts | 117° |
| 2026-05-05 18:09 | 41.58028 | -33.16589 | 41404 ft | 509 kts | 117° |
| 2026-05-05 18:10 | 41.54700 | -33.08255 | 41408 ft | 505 kts | 117° |
| 2026-05-05 18:10 | 41.51419 | -33.00062 | 41411 ft | 503 kts | 117° |
| 2026-05-05 18:11 | 41.48127 | -32.91862 | 41412 ft | 504 kts | 117° |
| 2026-05-05 18:11 | 41.44819 | -32.83646 | 41419 ft | 505 kts | 117° |
| 2026-05-05 18:12 | 41.41500 | -32.75426 | 41418 ft | 504 kts | 117° |
| 2026-05-05 18:12 | 41.38175 | -32.67213 | 41418 ft | 503 kts | 117° |
| 2026-05-05 18:13 | 41.34849 | -32.59021 | 41414 ft | 504 kts | 116° |
| 2026-05-05 18:13 | 41.31533 | -32.50877 | 41417 ft | 505 kts | 116° |
| 2026-05-05 18:14 | 41.28193 | -32.42696 | 41413 ft | 501 kts | 116° |
| 2026-05-05 18:14 | 41.24912 | -32.34568 | 41414 ft | 501 kts | 118° |
| 2026-05-05 18:15 | 41.21168 | -32.26775 | 41419 ft | 503 kts | 123° |
| 2026-05-05 18:15 | 41.17148 | -32.19211 | 41424 ft | 505 kts | 124° |
| 2026-05-05 18:16 | 41.13127 | -32.11691 | 41425 ft | 501 kts | 124° |
| 2026-05-05 18:16 | 41.09118 | -32.04100 | 41424 ft | 500 kts | 123° |
| 2026-05-05 18:17 | 41.05193 | -31.96586 | 41419 ft | 501 kts | 123° |
| 2026-05-05 18:17 | 41.01232 | -31.88976 | 41417 ft | 499 kts | 123° |
| 2026-05-05 18:18 | 40.97316 | -31.81448 | 41410 ft | 502 kts | 122° |
| 2026-05-05 18:18 | 40.93371 | -31.73875 | 41396 ft | 502 kts | 122° |
| 2026-05-05 18:19 | 40.89404 | -31.66287 | 41398 ft | 503 kts | 122° |
| 2026-05-05 18:19 | 40.85431 | -31.58705 | 41400 ft | 503 kts | 122° |
| 2026-05-05 18:20 | 40.81459 | -31.51150 | 41400 ft | 503 kts | 122° |
| 2026-05-05 18:20 | 40.77468 | -31.43578 | 41402 ft | 501 kts | 122° |
| 2026-05-05 18:21 | 40.73452 | -31.35972 | 41410 ft | 502 kts | 122° |
| 2026-05-05 18:21 | 40.69470 | -31.28446 | 41421 ft | 503 kts | 123° |
| 2026-05-05 18:22 | 40.65484 | -31.20934 | 41421 ft | 502 kts | 123° |
| 2026-05-05 18:22 | 40.61454 | -31.13355 | 41420 ft | 505 kts | 123° |
| 2026-05-05 18:23 | 40.57433 | -31.05814 | 41423 ft | 504 kts | 122° |
| 2026-05-05 18:23 | 40.53419 | -30.98308 | 41424 ft | 505 kts | 122° |
| 2026-05-05 18:24 | 40.49386 | -30.90781 | 41422 ft | 503 kts | 122° |
| 2026-05-05 18:24 | 40.45376 | -30.83317 | 41421 ft | 503 kts | 122° |
| 2026-05-05 18:25 | 40.41363 | -30.75862 | 41419 ft | 502 kts | 122° |
| 2026-05-05 18:25 | 40.37328 | -30.68384 | 41420 ft | 502 kts | 122° |
| 2026-05-05 18:26 | 40.33311 | -30.60960 | 41422 ft | 502 kts | 122° |
| 2026-05-05 18:26 | 40.29285 | -30.53537 | 41422 ft | 500 kts | 122° |
| 2026-05-05 18:27 | 40.25262 | -30.46133 | 41418 ft | 501 kts | 122° |
| 2026-05-05 18:27 | 40.21217 | -30.38707 | 41408 ft | 501 kts | 122° |
| 2026-05-05 18:28 | 40.15162 | -30.27630 | 41407 ft | 500 kts | 123° |
| 2026-05-05 18:28 | 40.11120 | -30.20255 | 41406 ft | 499 kts | 122° |
| 2026-05-05 18:29 | 40.07097 | -30.12935 | 41406 ft | 498 kts | 122° |
| 2026-05-05 18:29 | 40.03085 | -30.05652 | 41402 ft | 496 kts | 122° |
| 2026-05-05 18:30 | 39.99119 | -29.98272 | 41400 ft | 496 kts | 118° |
| 2026-05-05 18:30 | 39.95555 | -29.90665 | 41401 ft | 492 kts | 115° |
| 2026-05-05 18:31 | 39.92154 | -29.82936 | 41400 ft | 491 kts | 115° |
| 2026-05-05 18:31 | 39.88784 | -29.75272 | 41403 ft | 491 kts | 115° |
| 2026-05-05 18:32 | 39.85356 | -29.67586 | 41397 ft | 490 kts | 115° |
| 2026-05-05 18:32 | 39.81918 | -29.59957 | 41405 ft | 491 kts | 115° |
| 2026-05-05 18:33 | 39.78469 | -29.52355 | 41416 ft | 491 kts | 115° |
| 2026-05-05 18:33 | 39.75014 | -29.44770 | 41420 ft | 491 kts | 115° |
| 2026-05-05 18:34 | 39.71558 | -29.37208 | 41420 ft | 488 kts | 115° |
| 2026-05-05 18:34 | 39.68077 | -29.29599 | 41418 ft | 489 kts | 116° |
| 2026-05-05 18:35 | 39.64611 | -29.22045 | 41414 ft | 488 kts | 116° |
| 2026-05-05 18:35 | 39.61152 | -29.14526 | 41410 ft | 487 kts | 115° |
| 2026-05-05 18:36 | 39.57693 | -29.07023 | 41415 ft | 486 kts | 115° |
| 2026-05-05 18:36 | 39.54235 | -28.99538 | 41411 ft | 484 kts | 115° |
| 2026-05-05 18:37 | 39.50771 | -28.92058 | 41408 ft | 484 kts | 115° |
| 2026-05-05 18:37 | 39.47341 | -28.84674 | 41395 ft | 482 kts | 115° |
| 2026-05-05 18:38 | 39.43892 | -28.77261 | 41391 ft | 481 kts | 115° |
| 2026-05-05 18:38 | 39.40438 | -28.69860 | 41395 ft | 482 kts | 115° |
| 2026-05-05 18:39 | 39.36996 | -28.62495 | 41386 ft | 481 kts | 115° |
| 2026-05-05 18:39 | 39.33534 | -28.55103 | 41391 ft | 483 kts | 115° |
| 2026-05-05 18:40 | 39.30065 | -28.47722 | 41386 ft | 479 kts | 115° |
| 2026-05-05 18:40 | 39.26621 | -28.40418 | 41387 ft | 474 kts | 115° |
| 2026-05-05 18:41 | 39.23204 | -28.33177 | 41384 ft | 474 kts | 115° |
| 2026-05-05 18:41 | 39.19796 | -28.25969 | 41385 ft | 475 kts | 116° |
| 2026-05-05 18:42 | 39.16354 | -28.18701 | 41382 ft | 477 kts | 115° |
| 2026-05-05 18:42 | 39.12918 | -28.11469 | 41383 ft | 474 kts | 115° |
| 2026-05-05 18:43 | 39.09460 | -28.04215 | 41383 ft | 471 kts | 116° |
| 2026-05-05 18:43 | 39.06030 | -27.97026 | 41385 ft | 474 kts | 115° |
| 2026-05-05 18:44 | 39.02591 | -27.89840 | 41376 ft | 473 kts | 115° |
| 2026-05-05 18:44 | 38.99157 | -27.82673 | 41370 ft | 475 kts | 115° |
| 2026-05-05 18:45 | 38.95691 | -27.75462 | 41371 ft | 477 kts | 115° |
| 2026-05-05 18:45 | 38.92212 | -27.68242 | 41375 ft | 478 kts | 115° |
| 2026-05-05 18:46 | 38.88711 | -27.60997 | 41069 ft | 479 kts | 115° |
| 2026-05-05 18:46 | 38.86967 | -27.57394 | 40620 ft | 477 kts | 115° |
| 2026-05-05 18:46 | 38.85223 | -27.53798 | 40029 ft | 475 kts | 115° |
| 2026-05-05 18:47 | 38.83470 | -27.50186 | 39384 ft | 472 kts | 115° |
| 2026-05-05 18:47 | 38.81724 | -27.46594 | 38772 ft | 469 kts | 115° |
| 2026-05-05 18:47 | 38.80004 | -27.43059 | 38174 ft | 467 kts | 114° |
| 2026-05-05 18:47 | 38.78302 | -27.39560 | 37563 ft | 468 kts | 114° |
| 2026-05-05 18:48 | 38.76574 | -27.36008 | 36943 ft | 468 kts | 114° |
| 2026-05-05 18:48 | 38.74840 | -27.32449 | 36305 ft | 468 kts | 115° |
| 2026-05-05 18:48 | 38.73092 | -27.28862 | 35628 ft | 475 kts | 115° |
| 2026-05-05 18:48 | 38.71352 | -27.25290 | 35165 ft | 476 kts | 115° |
| 2026-05-05 18:49 | 38.69598 | -27.21695 | 34702 ft | 480 kts | 115° |
| 2026-05-05 18:49 | 38.67841 | -27.18103 | 34209 ft | 477 kts | 115° |
| 2026-05-05 18:49 | 38.66098 | -27.14557 | 33717 ft | 471 kts | 115° |
| 2026-05-05 18:49 | 38.64344 | -27.10997 | 33245 ft | 465 kts | 115° |
| 2026-05-05 18:50 | 38.62650 | -27.07560 | 32749 ft | 460 kts | 115° |
| 2026-05-05 18:50 | 38.60945 | -27.04103 | 32256 ft | 456 kts | 115° |
| 2026-05-05 18:50 | 38.59273 | -27.00714 | 31760 ft | 451 kts | 115° |
| 2026-05-05 18:50 | 38.57608 | -26.97334 | 31269 ft | 451 kts | 115° |
| 2026-05-05 18:51 | 38.55935 | -26.93932 | 30770 ft | 453 kts | 115° |
| 2026-05-05 18:51 | 38.54264 | -26.90540 | 30258 ft | 449 kts | 115° |
| 2026-05-05 18:51 | 38.52628 | -26.87231 | 29755 ft | 445 kts | 115° |
| 2026-05-05 18:51 | 38.50972 | -26.83889 | 29266 ft | 441 kts | 116° |
| 2026-05-05 18:52 | 38.49343 | -26.80604 | 28768 ft | 437 kts | 116° |
| 2026-05-05 18:52 | 38.47743 | -26.77380 | 28279 ft | 433 kts | 116° |
| 2026-05-05 18:52 | 38.46151 | -26.74174 | 27779 ft | 429 kts | 116° |
| 2026-05-05 18:52 | 38.44553 | -26.70956 | 27285 ft | 425 kts | 116° |
| 2026-05-05 18:53 | 38.42982 | -26.67796 | 26788 ft | 421 kts | 116° |
| 2026-05-05 18:53 | 38.41436 | -26.64688 | 26299 ft | 418 kts | 116° |
| 2026-05-05 18:53 | 38.39889 | -26.61582 | 25811 ft | 414 kts | 116° |
| 2026-05-05 18:53 | 38.38359 | -26.58513 | 25322 ft | 410 kts | 116° |
| 2026-05-05 18:54 | 38.36832 | -26.55452 | 24828 ft | 406 kts | 116° |
| 2026-05-05 18:54 | 38.35340 | -26.52462 | 24353 ft | 402 kts | 117° |
| 2026-05-05 18:54 | 38.33851 | -26.49484 | 23878 ft | 398 kts | 117° |
| 2026-05-05 18:54 | 38.32364 | -26.46513 | 23397 ft | 394 kts | 117° |
| 2026-05-05 18:55 | 38.30915 | -26.43620 | 22939 ft | 390 kts | 117° |
| 2026-05-05 18:55 | 38.29465 | -26.40731 | 22474 ft | 387 kts | 117° |
| 2026-05-05 18:55 | 38.27957 | -26.37878 | 21999 ft | 386 kts | 121° |
| 2026-05-05 18:55 | 38.26272 | -26.35272 | 21530 ft | 387 kts | 129° |
| 2026-05-05 18:56 | 38.24321 | -26.32888 | 21041 ft | 386 kts | 136° |
| 2026-05-05 18:56 | 38.22306 | -26.30706 | 20648 ft | 381 kts | 137° |
| 2026-05-05 18:56 | 38.20256 | -26.28588 | 20410 ft | 373 kts | 139° |
| 2026-05-05 18:56 | 38.18256 | -26.26535 | 20177 ft | 371 kts | 139° |
| 2026-05-05 18:57 | 38.16257 | -26.24461 | 19941 ft | 373 kts | 138° |
| 2026-05-05 18:57 | 38.14231 | -26.22415 | 19696 ft | 369 kts | 144° |
| 2026-05-05 18:57 | 38.11969 | -26.20925 | 19461 ft | 367 kts | 158° |
| 2026-05-05 18:57 | 38.09539 | -26.19860 | 19227 ft | 369 kts | 163° |
| 2026-05-05 18:58 | 38.07087 | -26.18966 | 18986 ft | 365 kts | 165° |
| 2026-05-05 18:58 | 38.04667 | -26.18121 | 18750 ft | 364 kts | 165° |
| 2026-05-05 18:58 | 38.02217 | -26.17238 | 18508 ft | 362 kts | 164° |
| 2026-05-05 18:58 | 37.99811 | -26.16332 | 18272 ft | 362 kts | 163° |
| 2026-05-05 18:59 | 37.97413 | -26.15395 | 18027 ft | 359 kts | 163° |
| 2026-05-05 18:59 | 37.95036 | -26.14446 | 17779 ft | 358 kts | 162° |
| 2026-05-05 18:59 | 37.92673 | -26.13492 | 17536 ft | 359 kts | 162° |
| 2026-05-05 18:59 | 37.90304 | -26.12531 | 17284 ft | 354 kts | 162° |
| 2026-05-05 19:00 | 37.87953 | -26.11576 | 17037 ft | 354 kts | 162° |
| 2026-05-05 19:00 | 37.85612 | -26.10625 | 16790 ft | 351 kts | 161° |
| 2026-05-05 19:00 | 37.83369 | -26.09489 | 16534 ft | 349 kts | 151° |
| 2026-05-05 19:00 | 37.81409 | -26.07704 | 16286 ft | 344 kts | 132° |
| 2026-05-05 19:01 | 37.79901 | -26.05423 | 16054 ft | 340 kts | 123° |
| 2026-05-05 19:01 | 37.78504 | -26.03003 | 15796 ft | 338 kts | 122° |
| 2026-05-05 19:01 | 37.77140 | -26.00584 | 15530 ft | 336 kts | 122° |
| 2026-05-05 19:01 | 37.75766 | -25.98167 | 15276 ft | 343 kts | 122° |
| 2026-05-05 19:02 | 37.74368 | -25.95748 | 15018 ft | 340 kts | 122° |
| 2026-05-05 19:02 | 37.72977 | -25.93377 | 14777 ft | 333 kts | 123° |
| 2026-05-05 19:02 | 37.71603 | -25.91052 | 14535 ft | 339 kts | 123° |
| 2026-05-05 19:02 | 37.70184 | -25.88650 | 14274 ft | 336 kts | 123° |
| 2026-05-05 19:03 | 37.68813 | -25.86341 | 14036 ft | 327 kts | 123° |
| 2026-05-05 19:03 | 37.67463 | -25.84066 | 13782 ft | 325 kts | 122° |
| 2026-05-05 19:03 | 37.66101 | -25.81766 | 13526 ft | 325 kts | 122° |
| 2026-05-05 19:03 | 37.64707 | -25.79540 | 13301 ft | 324 kts | 126° |
| 2026-05-05 19:04 | 37.63234 | -25.77352 | 13043 ft | 324 kts | 127° |
| 2026-05-05 19:04 | 37.61779 | -25.75240 | 12823 ft | 321 kts | 127° |
| 2026-05-05 19:04 | 37.60300 | -25.73108 | 12671 ft | 320 kts | 127° |
| 2026-05-05 19:04 | 37.58824 | -25.70979 | 12409 ft | 331 kts | 127° |
| 2026-05-05 19:05 | 37.57334 | -25.68822 | 12210 ft | 323 kts | 127° |
| 2026-05-05 19:05 | 37.55875 | -25.66710 | 11911 ft | 316 kts | 127° |
| 2026-05-05 19:05 | 37.54451 | -25.64663 | 11610 ft | 310 kts | 127° |
| 2026-05-05 19:05 | 37.53049 | -25.62594 | 11247 ft | 305 kts | 122° |
| 2026-05-05 19:06 | 37.51902 | -25.60429 | 10634 ft | 302 kts | 116° |
| 2026-05-05 19:06 | 37.50846 | -25.58138 | 9788 ft | 300 kts | 114° |
| 2026-05-05 19:06 | 37.49869 | -25.55944 | 9482 ft | 283 kts | 114° |
| 2026-05-05 19:06 | 37.48919 | -25.53800 | 8996 ft | 274 kts | 114° |
| 2026-05-05 19:07 | 37.48012 | -25.51745 | 8561 ft | 266 kts | 114° |
| 2026-05-05 19:07 | 37.47123 | -25.49746 | 8059 ft | 261 kts | 113° |
| 2026-05-05 19:07 | 37.46298 | -25.47748 | 7536 ft | 260 kts | 112° |
| 2026-05-05 19:07 | 37.45495 | -25.45757 | 7149 ft | 252 kts | 112° |
| 2026-05-05 19:08 | 37.44765 | -25.43762 | 6809 ft | 241 kts | 100° |
| 2026-05-05 19:08 | 37.44783 | -25.41805 | 6558 ft | 222 kts | 64° |
| 2026-05-05 19:08 | 37.45658 | -25.40304 | 6321 ft | 210 kts | 38° |
| 2026-05-05 19:08 | 37.46877 | -25.39318 | 6076 ft | 206 kts | 25° |
| 2026-05-05 19:09 | 37.48239 | -25.38688 | 5827 ft | 207 kts | 18° |
| 2026-05-05 19:09 | 37.49651 | -25.38080 | 5588 ft | 223 kts | 21° |
| 2026-05-05 19:09 | 37.51080 | -25.37379 | 5469 ft | 220 kts | 22° |
| 2026-05-05 19:09 | 37.52521 | -25.36628 | 5471 ft | 224 kts | 23° |
| 2026-05-05 19:10 | 37.53958 | -25.35874 | 5464 ft | 223 kts | 23° |
| 2026-05-05 19:10 | 37.55392 | -25.35127 | 5468 ft | 223 kts | 23° |
| 2026-05-05 19:10 | 37.56831 | -25.34382 | 5469 ft | 222 kts | 24° |
| 2026-05-05 19:10 | 37.58258 | -25.33642 | 5470 ft | 223 kts | 23° |
| 2026-05-05 19:11 | 37.59712 | -25.32925 | 5467 ft | 220 kts | 19° |
| 2026-05-05 19:11 | 37.61149 | -25.32664 | 5459 ft | 201 kts | 353° |
| 2026-05-05 19:11 | 37.62375 | -25.33419 | 5404 ft | 199 kts | 320° |
| 2026-05-05 19:11 | 37.63146 | -25.34905 | 5151 ft | 209 kts | 297° |
| 2026-05-05 19:12 | 37.63696 | -25.36599 | 4918 ft | 205 kts | 298° |
| 2026-05-05 19:12 | 37.64260 | -25.38267 | 4759 ft | 207 kts | 297° |
| 2026-05-05 19:12 | 37.64787 | -25.39935 | 4583 ft | 207 kts | 294° |
| 2026-05-05 19:12 | 37.65269 | -25.41657 | 4397 ft | 207 kts | 295° |
| 2026-05-05 19:13 | 37.65780 | -25.43356 | 4163 ft | 207 kts | 296° |
| 2026-05-05 19:13 | 37.66317 | -25.45029 | 3939 ft | 205 kts | 296° |
| 2026-05-05 19:13 | 37.66879 | -25.46763 | 3764 ft | 219 kts | 296° |
| 2026-05-05 19:13 | 37.67427 | -25.48481 | 3588 ft | 206 kts | 296° |
| 2026-05-05 19:14 | 37.67950 | -25.50136 | 3333 ft | 199 kts | 296° |
| 2026-05-05 19:14 | 37.68460 | -25.51734 | 3059 ft | 194 kts | 296° |
| 2026-05-05 19:14 | 37.68963 | -25.53304 | 2825 ft | 192 kts | 296° |
| 2026-05-05 19:14 | 37.69463 | -25.54870 | 2520 ft | 193 kts | 296° |
| 2026-05-05 19:15 | 37.69957 | -25.56423 | 2257 ft | 191 kts | 296° |
| 2026-05-05 19:15 | 37.70456 | -25.57987 | 1987 ft | 191 kts | 296° |
| 2026-05-05 19:15 | 37.70949 | -25.59533 | 1728 ft | 190 kts | 296° |
| 2026-05-05 19:15 | 37.71431 | -25.61058 | 1486 ft | 179 kts | 296° |
| 2026-05-05 19:16 | 37.71872 | -25.62449 | 1246 ft | 164 kts | 296° |
| 2026-05-05 19:16 | 37.72281 | -25.63726 | 1016 ft | 151 kts | 296° |
| 2026-05-05 19:16 | 37.72648 | -25.64887 | 825 ft | 137 kts | 297° |
| 2026-05-05 19:16 | 37.72984 | -25.65947 | 646 ft | 127 kts | 296° |
| 2026-05-05 19:17 | 37.73311 | -25.66967 | 518 ft | 125 kts | 296° |
| 2026-05-05 19:17 | 37.73647 | -25.68030 | 346 ft | 131 kts | 295° |
| 2026-05-05 19:17 | 37.73989 | -25.69106 | 202 ft | 133 kts | 295° |
| 2026-05-05 19:17 | 37.74265 | -25.69973 | 230 ft | 73 kts | 291° |
| 2026-05-05 19:18 | 37.74363 | -25.70296 | 241 ft | 3 kts | 294° |
| 2026-05-05 19:18 | 37.74401 | -25.70327 | 242 ft | 12 kts | 346° |
| 2026-05-05 19:18 | 37.74479 | -25.70353 | 245 ft | 10 kts | 329° |
| 2026-05-05 19:18 | 37.74549 | -25.70418 | 248 ft | 13 kts | 319° |
| 2026-05-05 19:19 | 37.74601 | -25.70496 | 251 ft | 10 kts | 300° |
| 2026-05-05 19:19 | 37.74633 | -25.70566 | 254 ft | 8 kts | 297° |
| 2026-05-05 19:19 | 37.74649 | -25.70622 | 256 ft | 5 kts | 287° |
| 2026-05-05 19:19 | 37.74666 | -25.70690 | 258 ft | 15 kts | 290° |
| 2026-05-05 19:20 | 37.74705 | -25.70786 | 260 ft | 7 kts | 354° |
| 2026-05-05 19:20 | 37.74755 | -25.70767 | 261 ft | 3 kts | 21° |
| 2026-05-05 19:20 | 37.74756 | -25.70767 | 261 ft | 0 kts | 21° |